createdAt,value
2023-03-26T00:02:06.234Z,95756.03
2023-03-26T00:04:34.686Z,95750.28
2023-03-26T00:07:03.091Z,95728.34
2023-03-26T00:09:31.387Z,95733.06
2023-03-26T00:11:59.462Z,95743.06
2023-03-26T00:14:29.303Z,95744.66
2023-03-26T00:16:58.755Z,95733.41
2023-03-26T00:19:27.945Z,95729.94
2023-03-26T00:21:57.823Z,95716.84
2023-03-26T00:24:29.626Z,95741.38
2023-03-26T00:26:57.639Z,95740.06
2023-03-26T00:29:28.168Z,95743.72
2023-03-26T00:31:56.277Z,95751.91
2023-03-26T00:34:26.760Z,95734.16
2023-03-26T00:36:55.230Z,95737.59
2023-03-26T00:39:24.167Z,95737.88
2023-03-26T00:41:54.514Z,95736.28
2023-03-26T00:44:23.015Z,95745.63
2023-03-26T00:46:51.051Z,95760.25
2023-03-26T00:49:19.068Z,95761.56
2023-03-26T00:51:48.449Z,95760.50
2023-03-26T00:54:16.594Z,95768.56
2023-03-26T00:56:44.581Z,95762.53
2023-03-26T00:59:12.723Z,95763.84
2023-03-26T01:01:40.819Z,95778.25
2023-03-26T01:04:28.322Z,95787.41
2023-03-26T01:07:00.077Z,95770.63
2023-03-26T01:09:34.196Z,95780.56
2023-03-26T01:12:05.808Z,95795.47
2023-03-26T01:14:34.081Z,95787.41
2023-03-26T01:17:03.918Z,95775.13
2023-03-26T01:19:39.301Z,95756.56
2023-03-26T01:22:11.277Z,95757.59
2023-03-26T01:24:41.078Z,95750.81
2023-03-26T01:27:20.963Z,95744.53
2023-03-26T01:29:55.745Z,95733.59
2023-03-26T01:32:33.066Z,95735.78
2023-03-26T01:35:14.202Z,95725.59
2023-03-26T01:37:53.589Z,95716.97
2023-03-26T01:40:28.331Z,95706.50
2023-03-26T01:43:01.573Z,95702.09
2023-03-26T01:45:33.380Z,95700.28
2023-03-26T01:48:01.805Z,95697.66
2023-03-26T01:50:29.960Z,95678.31
2023-03-26T01:52:58.239Z,95661.56
2023-03-26T01:55:35.183Z,95664.44
2023-03-26T01:58:12.990Z,95654.50
2023-03-26T02:00:49.456Z,95644.31
2023-03-26T02:03:26.650Z,95647.44
2023-03-26T02:06:00.578Z,95649.50
2023-03-26T02:08:35.830Z,95644.78
2023-03-26T02:11:11.471Z,95653.41
2023-03-26T02:13:41.081Z,95658.91
2023-03-26T02:16:14.339Z,95650.53
2023-03-26T02:18:43.112Z,95650.78
2023-03-26T02:21:14.502Z,95658.59
2023-03-26T02:23:47.212Z,95657.25
2023-03-26T02:26:18.992Z,95651.72
2023-03-26T02:28:47.207Z,95646.72
2023-03-26T02:31:17.270Z,95652.47
2023-03-26T02:33:47.666Z,95640.13
2023-03-26T02:36:18.557Z,95648.72
2023-03-26T02:38:46.767Z,95650.25
2023-03-26T02:41:16.283Z,95666.19
2023-03-26T02:43:44.351Z,95652.06
2023-03-26T02:46:12.337Z,95639.28
2023-03-26T02:48:41.569Z,95653.47
2023-03-26T02:51:09.783Z,95626.28
2023-03-26T02:53:39.578Z,95617.91
2023-03-26T02:56:08.277Z,95636.50
2023-03-26T02:58:37.682Z,95625.22
2023-03-26T03:01:06.124Z,95624.16
2023-03-26T03:03:34.636Z,95622.06
2023-03-26T03:06:02.795Z,95624.69
2023-03-26T03:08:30.898Z,95628.84
2023-03-26T03:11:00.404Z,95626.75
2023-03-26T03:13:28.828Z,95622.56
2023-03-26T03:15:58.179Z,95604.81
2023-03-26T03:18:26.312Z,95593.78
2023-03-26T03:20:55.060Z,95575.97
2023-03-26T03:23:23.175Z,95581.75
2023-03-26T03:25:52.854Z,95581.22
2023-03-26T03:28:21.131Z,95575.44
2023-03-26T03:30:49.136Z,95590.34
2023-03-26T03:33:20.427Z,95590.66
2023-03-26T03:35:49.496Z,95558.00
2023-03-26T03:38:19.265Z,95568.25
2023-03-26T03:40:47.544Z,95562.00
2023-03-26T03:43:15.767Z,95549.53
2023-03-26T03:45:43.867Z,95564.44
2023-03-26T03:48:11.896Z,95553.41
2023-03-26T03:50:41.985Z,95546.56
2023-03-26T03:53:10.033Z,95567.69
2023-03-26T03:55:38.351Z,95554.06
2023-03-26T03:58:09.307Z,95548.34
2023-03-26T04:00:38.345Z,95548.56
2023-03-26T04:03:06.698Z,95517.16
2023-03-26T04:05:35.073Z,95520.56
2023-03-26T04:08:04.596Z,95521.31
2023-03-26T04:10:32.634Z,95513.19
2023-03-26T04:13:00.757Z,95505.34
2023-03-26T04:15:28.811Z,95498.59
2023-03-26T04:17:56.872Z,95481.66
2023-03-26T04:20:24.951Z,95474.75
2023-03-26T04:22:52.969Z,95478.50
2023-03-26T04:25:22.547Z,95463.91
2023-03-26T04:27:50.504Z,95462.84
2023-03-26T04:30:21.631Z,95455.59
2023-03-26T04:32:49.646Z,95460.78
2023-03-26T04:35:19.586Z,95469.66
2023-03-26T04:37:48.002Z,95461.25
2023-03-26T04:40:19.533Z,95468.03
2023-03-26T04:42:49.155Z,95455.25
2023-03-26T04:45:22.590Z,95451.53
2023-03-26T04:47:51.135Z,95443.91
2023-03-26T04:50:19.481Z,95432.91
2023-03-26T04:52:47.480Z,95419.31
2023-03-26T04:55:24.957Z,95425.88
2023-03-26T04:57:57.827Z,95426.66
2023-03-26T05:00:25.889Z,95426.16
2023-03-26T05:02:56.214Z,95419.91
2023-03-26T05:05:24.903Z,95417.31
2023-03-26T05:07:52.924Z,95419.66
2023-03-26T05:10:21.589Z,95427.72
2023-03-26T05:12:50.210Z,95431.13
2023-03-26T05:15:19.821Z,95436.13
2023-03-26T05:17:48.569Z,95443.69
2023-03-26T05:20:21.048Z,95446.56
2023-03-26T05:22:49.968Z,95449.78
2023-03-26T05:25:18.391Z,95459.69
2023-03-26T05:27:46.864Z,95459.91
2023-03-26T05:30:17.044Z,95479.50
2023-03-26T05:32:48.930Z,95478.97
2023-03-26T05:35:18.119Z,95481.16
2023-03-26T05:37:46.670Z,95466.53
2023-03-26T05:40:17.354Z,95459.75
2023-03-26T05:42:45.712Z,95484.31
2023-03-26T05:45:15.889Z,95494.22
2023-03-26T05:47:44.227Z,95496.84
2023-03-26T05:50:13.797Z,95500.47
2023-03-26T05:52:41.895Z,95502.56
2023-03-26T05:55:10.822Z,95490.03
2023-03-26T05:57:39.280Z,95491.59
2023-03-26T06:00:11.344Z,95495.28
2023-03-26T06:02:39.506Z,95503.91
2023-03-26T06:05:09.973Z,95494.72
2023-03-26T06:07:39.866Z,95461.78
2023-03-26T06:10:09.488Z,95464.41
2023-03-26T06:12:38.248Z,95457.56
2023-03-26T06:15:08.800Z,95452.81
2023-03-26T06:17:36.893Z,95444.91
2023-03-26T06:20:09.288Z,95441.44
2023-03-26T06:22:37.570Z,95435.91
2023-03-26T06:25:07.768Z,95438.47
2023-03-26T06:27:35.824Z,95438.91
2023-03-26T06:30:03.888Z,95439.38
2023-03-26T06:32:31.940Z,95425.72
2023-03-26T06:35:00.026Z,95407.25
2023-03-26T06:37:28.002Z,95399.72
2023-03-26T06:39:56.005Z,95384.59
2023-03-26T06:43:08.020Z,95377.00
2023-03-26T06:45:13.375Z,95382.63
2023-03-26T06:47:41.421Z,95372.56
2023-03-26T06:50:11.617Z,95367.13
2023-03-26T06:52:39.618Z,95379.13
2023-03-26T06:55:10.423Z,95385.47
2023-03-26T06:57:39.843Z,95362.44
2023-03-26T07:00:09.856Z,95360.09
2023-03-26T07:02:37.960Z,95390.69
2023-03-26T07:05:06.335Z,95399.03
2023-03-26T07:07:34.317Z,95406.28
2023-03-26T07:10:02.361Z,95409.91
2023-03-26T07:12:30.507Z,95411.41
2023-03-26T07:15:01.797Z,95421.59
2023-03-26T07:17:29.971Z,95411.91
2023-03-26T07:19:58.306Z,95416.31
2023-03-26T07:22:27.194Z,95406.00
2023-03-26T07:24:56.133Z,95397.06
2023-03-26T07:27:36.302Z,95392.38
2023-03-26T07:30:10.672Z,95386.59
2023-03-26T07:32:48.732Z,95398.84
2023-03-26T07:35:23.660Z,95403.28
2023-03-26T07:38:03.402Z,95402.34
2023-03-26T07:40:45.708Z,95405.63
2023-03-26T07:43:26.858Z,95415.66
2023-03-26T07:45:57.655Z,95394.50
2023-03-26T07:48:28.148Z,95402.63
2023-03-26T07:50:57.538Z,95414.63
2023-03-26T07:53:26.604Z,95419.25
2023-03-26T07:56:01.625Z,95417.41
2023-03-26T07:58:50.576Z,95422.38
2023-03-26T08:01:28.312Z,95429.66
2023-03-26T08:04:43.328Z,95410.78
2023-03-26T08:07:19.275Z,95405.22
2023-03-26T08:10:03.414Z,95394.94
2023-03-26T08:12:42.860Z,95399.06
2023-03-26T08:15:19.266Z,95405.28
2023-03-26T08:17:53.571Z,95392.16
2023-03-26T08:20:32.600Z,95390.53
2023-03-26T08:23:09.381Z,95383.47
2023-03-26T08:25:49.968Z,95382.69
2023-03-26T08:28:31.261Z,95381.13
2023-03-26T08:31:02.992Z,95388.41
2023-03-26T08:33:36.011Z,95387.66
2023-03-26T08:36:06.064Z,95396.78
2023-03-26T08:38:34.221Z,95400.94
2023-03-26T08:41:37.464Z,95421.72
2023-03-26T08:44:49.923Z,95440.47
2023-03-26T08:47:55.689Z,95441.06
2023-03-26T08:51:05.095Z,95460.94
2023-03-26T08:54:18.010Z,95461.97
2023-03-26T08:56:54.045Z,95466.97
2023-03-26T08:59:50.674Z,95454.25
2023-03-26T09:02:41.052Z,95442.78
2023-03-26T09:05:39.778Z,95444.81
2023-03-26T09:08:53.667Z,95455.94
2023-03-26T09:12:25.595Z,95456.41
2023-03-26T09:15:36.697Z,95446.16
2023-03-26T09:18:32.456Z,95444.00
2023-03-26T09:21:33.143Z,95437.59
2023-03-26T09:24:42.214Z,95438.59
2023-03-26T09:27:30.027Z,95436.47
2023-03-26T09:30:31.684Z,95419.22
2023-03-26T09:33:32.266Z,95397.34
2023-03-26T09:36:27.262Z,95392.88
2023-03-26T09:39:04.088Z,95402.94
2023-03-26T09:41:43.109Z,95389.81
2023-03-26T09:44:33.608Z,95388.25
2023-03-26T09:47:47.744Z,95389.66
2023-03-26T09:50:36.659Z,95395.50
2023-03-26T09:53:26.837Z,95395.72
2023-03-26T09:56:05.966Z,95398.34
2023-03-26T09:58:48.134Z,95397.28
2023-03-26T10:01:25.176Z,95393.03
2023-03-26T10:04:08.454Z,95390.47
2023-03-26T10:06:49.715Z,95397.16
2023-03-26T10:09:32.832Z,95417.97
2023-03-26T10:12:16.934Z,95425.22
2023-03-26T10:14:55.741Z,95447.16
2023-03-26T10:17:40.056Z,95444.09
2023-03-26T10:20:33.131Z,95435.19
2023-03-26T10:23:25.938Z,95445.38
2023-03-26T10:26:05.068Z,95436.25
2023-03-26T10:28:45.842Z,95449.41
2023-03-26T10:31:49.175Z,95469.69
2023-03-26T10:34:50.010Z,95466.66
2023-03-26T10:37:25.961Z,95445.44
2023-03-26T10:40:13.912Z,95455.91
2023-03-26T10:43:22.175Z,95472.91
2023-03-26T10:46:29.533Z,95458.41
2023-03-26T10:49:15.681Z,95442.09
2023-03-26T10:51:53.515Z,95438.25
2023-03-26T10:54:33.382Z,95441.88
2023-03-26T10:57:04.419Z,95443.38
2023-03-26T10:59:32.545Z,95429.41
2023-03-26T11:02:15.972Z,95418.75
2023-03-26T11:04:54.839Z,95401.41
2023-03-26T11:07:29.642Z,95373.09
2023-03-26T11:10:06.411Z,95367.91
2023-03-26T11:12:41.355Z,95372.88
2023-03-26T11:15:22.642Z,95376.81
2023-03-26T11:18:02.288Z,95358.09
2023-03-26T11:20:38.826Z,95350.22
2023-03-26T11:23:35.883Z,95340.88
2023-03-26T11:26:12.608Z,95340.19
2023-03-26T11:29:32.357Z,95349.81
2023-03-26T11:32:02.301Z,95346.34
2023-03-26T11:34:37.070Z,95344.28
2023-03-26T11:37:09.948Z,95328.41
2023-03-26T11:39:46.543Z,95318.06
2023-03-26T11:42:17.494Z,95299.25
2023-03-26T11:44:51.433Z,95295.44
2023-03-26T11:47:24.673Z,95285.44
2023-03-26T11:49:56.490Z,95291.41
2023-03-26T11:52:24.664Z,95290.94
2023-03-26T11:54:58.668Z,95287.25
2023-03-26T11:57:31.069Z,95287.06
2023-03-26T12:00:09.102Z,95277.88
2023-03-26T12:02:40.792Z,95261.81
2023-03-26T12:05:19.454Z,95255.59
2023-03-26T12:07:53.210Z,95255.78
2023-03-26T12:10:33.794Z,95248.25
2023-03-26T12:13:04.236Z,95248.06
2023-03-26T12:15:32.723Z,95232.25
2023-03-26T12:18:21.197Z,95230.47
2023-03-26T12:20:49.524Z,95236.41
2023-03-26T12:23:38.844Z,95232.56
2023-03-26T12:26:15.782Z,95231.50
2023-03-26T12:28:48.652Z,95209.88
2023-03-26T12:31:19.586Z,95189.66
2023-03-26T12:34:07.618Z,95194.78
2023-03-26T12:36:36.536Z,95194.31
2023-03-26T12:40:07.350Z,95200.03
2023-03-26T12:44:45.046Z,95188.41
2023-03-26T12:45:23.845Z,95164.09
2023-03-26T12:47:58.377Z,95142.25
2023-03-26T12:50:38.139Z,95138.81
2023-03-26T12:53:33.413Z,95117.59
2023-03-26T12:56:09.849Z,95104.06
2023-03-26T12:58:58.749Z,95094.47
2023-03-26T13:01:34.483Z,95078.97
2023-03-26T13:04:30.286Z,95066.16
2023-03-26T13:07:02.485Z,95045.78
2023-03-26T13:09:45.136Z,95043.47
2023-03-26T13:12:26.527Z,95034.34
2023-03-26T13:15:17.980Z,95042.06
2023-03-26T13:17:56.966Z,95040.03
2023-03-26T13:20:33.077Z,95024.88
2023-03-26T13:23:08.807Z,95012.19
2023-03-26T13:25:49.367Z,95015.28
2023-03-26T13:28:30.977Z,95016.69
2023-03-26T13:33:50.094Z,95010.47
2023-03-26T13:36:24.559Z,95001.66
2023-03-26T13:39:16.468Z,95013.44
2023-03-26T13:41:59.026Z,95018.41
2023-03-26T13:44:38.100Z,95041.91
2023-03-26T13:47:12.076Z,95058.00
2023-03-26T13:49:45.365Z,95048.41
2023-03-26T13:52:19.753Z,95064.50
2023-03-26T13:54:52.678Z,95081.19
2023-03-26T13:57:26.298Z,95101.75
2023-03-26T13:59:59.738Z,95118.25
2023-03-26T14:02:35.769Z,95118.63
2023-03-26T14:05:10.216Z,95131.81
2023-03-26T14:07:44.426Z,95155.59
2023-03-26T14:10:16.326Z,95166.94
2023-03-26T14:12:55.631Z,95185.72
2023-03-26T14:15:28.412Z,95198.47
2023-03-26T14:18:07.865Z,95208.78
2023-03-26T14:21:10.666Z,95235.25
2023-03-26T14:24:09.128Z,95257.81
2023-03-26T14:26:51.989Z,95277.81
2023-03-26T14:29:31.687Z,95271.63
2023-03-26T14:32:13.910Z,95275.47
2023-03-26T14:34:55.922Z,95278.41
2023-03-26T14:37:49.050Z,95238.78
2023-03-26T14:40:45.521Z,95227.03
2023-03-26T14:43:35.539Z,95239.06
2023-03-26T14:46:15.559Z,95257.03
2023-03-26T14:49:26.167Z,95271.78
2023-03-26T14:52:11.233Z,95293.22
2023-03-26T14:54:42.628Z,95286.06
2023-03-26T14:57:36.301Z,95278.28
2023-03-26T15:00:55.588Z,95277.84
2023-03-26T15:04:09.506Z,95272.53
2023-03-26T15:07:25.776Z,95269.72
2023-03-26T15:10:39.757Z,95273.34
2023-03-26T15:13:35.141Z,95277.22
2023-03-26T15:16:18.188Z,95269.84
2023-03-26T15:19:18.847Z,95275.41
2023-03-26T15:22:24.521Z,95265.81
2023-03-26T15:25:46.832Z,95248.72
2023-03-26T15:28:50.576Z,95263.84
2023-03-26T15:31:51.153Z,95251.84
2023-03-26T15:34:45.501Z,95237.97
2023-03-26T15:38:04.315Z,95255.50
2023-03-26T15:41:17.595Z,95245.53
2023-03-26T15:44:33.031Z,95241.94
2023-03-26T15:47:40.240Z,95251.41
2023-03-26T15:50:21.524Z,95243.06
2023-03-26T15:52:57.950Z,95243.06
2023-03-26T15:55:33.776Z,95247.72
2023-03-26T15:58:11.438Z,95237.84
2023-03-26T16:00:50.531Z,95236.63
2023-03-26T16:03:31.696Z,95237.97
2023-03-26T16:06:31.159Z,95244.75
2023-03-26T16:09:12.781Z,95248.44
2023-03-26T16:11:53.595Z,95248.22
2023-03-26T16:14:25.698Z,95228.34
2023-03-26T16:16:58.735Z,95220.13
2023-03-26T16:19:52.020Z,95206.00
2023-03-26T16:22:46.519Z,95206.28
2023-03-26T16:25:27.399Z,95210.25
2023-03-26T16:28:18.180Z,95212.31
2023-03-26T16:31:23.602Z,95214.91
2023-03-26T16:34:22.856Z,95222.31
2023-03-26T16:36:51.528Z,95224.09
2023-03-26T16:39:23.720Z,95214.44
2023-03-26T16:42:27.947Z,95198.00
2023-03-26T16:45:11.331Z,95181.19
2023-03-26T16:47:51.651Z,95173.59
2023-03-26T16:50:30.078Z,95178.19
2023-03-26T16:53:06.625Z,95173.25
2023-03-26T16:55:44.557Z,95169.84
2023-03-26T16:58:23.182Z,95167.59
2023-03-26T17:01:01.039Z,95165.63
2023-03-26T17:03:37.749Z,95161.53
2023-03-26T17:06:21.032Z,95162.59
2023-03-26T17:09:02.817Z,95163.72
2023-03-26T17:11:40.057Z,95155.53
2023-03-26T17:14:19.687Z,95147.06
2023-03-26T17:16:50.337Z,95148.91
2023-03-26T17:19:29.776Z,95141.56
2023-03-26T17:22:03.841Z,95133.00
2023-03-26T17:24:43.397Z,95147.22
2023-03-26T17:27:28.324Z,95146.00
2023-03-26T17:30:24.952Z,95148.09
2023-03-26T17:32:56.766Z,95134.22
2023-03-26T17:35:44.561Z,95120.22
2023-03-26T17:39:00.537Z,95109.19
2023-03-26T17:41:56.679Z,95112.69
2023-03-26T17:44:48.709Z,95116.22
2023-03-26T17:47:27.728Z,95111.97
2023-03-26T17:50:01.610Z,95115.38
2023-03-26T17:52:48.072Z,95107.81
2023-03-26T17:55:19.586Z,95112.34
2023-03-26T17:57:50.971Z,95114.25
2023-03-26T18:00:23.950Z,95118.50
2023-03-26T18:02:57.417Z,95114.44
2023-03-26T18:05:29.590Z,95112.44
2023-03-26T18:08:34.138Z,95116.19
2023-03-26T18:11:31.781Z,95112.56
2023-03-26T18:14:35.640Z,95111.78
2023-03-26T18:17:04.647Z,95108.94
2023-03-26T18:19:48.804Z,95108.38
2023-03-26T18:22:22.201Z,95105.44
2023-03-26T18:24:51.396Z,95110.91
2023-03-26T18:27:21.784Z,95119.22
2023-03-26T18:30:03.046Z,95105.66
2023-03-26T18:32:33.499Z,95102.84
2023-03-26T18:35:04.531Z,95116.72
2023-03-26T18:37:34.698Z,95112.06
2023-03-26T18:40:11.972Z,95115.25
2023-03-26T18:42:42.165Z,95099.63
2023-03-26T18:45:24.796Z,95097.00
2023-03-26T18:47:54.914Z,95094.59
2023-03-26T18:50:26.667Z,95091.44
2023-03-26T18:52:57.265Z,95096.09
2023-03-26T18:55:28.336Z,95093.19
2023-03-26T18:57:57.317Z,95094.22
2023-03-26T19:00:30.412Z,95075.84
2023-03-26T19:03:05.055Z,95081.50
2023-03-26T19:05:34.874Z,95082.75
2023-03-26T19:08:04.948Z,95087.72
2023-03-26T19:10:34.473Z,95089.25
2023-03-26T19:13:04.157Z,95085.16
2023-03-26T19:15:35.461Z,95085.31
2023-03-26T19:18:10.022Z,95083.31
2023-03-26T19:20:43.374Z,95081.25
2023-03-26T19:23:16.649Z,95081.53
2023-03-26T19:25:48.284Z,95086.97
2023-03-26T19:28:20.372Z,95098.22
2023-03-26T19:30:54.885Z,95094.13
2023-03-26T19:33:23.819Z,95092.84
2023-03-26T19:35:54.642Z,95095.94
2023-03-26T19:38:25.030Z,95086.06
2023-03-26T19:40:55.615Z,95085.91
2023-03-26T19:43:25.220Z,95074.19
2023-03-26T19:45:59.716Z,95077.38
2023-03-26T19:48:45.692Z,95068.03
2023-03-26T19:51:21.427Z,95071.28
2023-03-26T19:53:54.237Z,95073.72
2023-03-26T19:56:23.483Z,95080.00
2023-03-26T19:58:51.734Z,95078.75
2023-03-26T20:01:24.090Z,95074.84
2023-03-26T20:03:55.405Z,95076.63
2023-03-26T20:06:34.144Z,95077.84
2023-03-26T20:09:11.366Z,95082.16
2023-03-26T20:11:40.902Z,95078.91
2023-03-26T20:14:14.220Z,95074.13
2023-03-26T20:16:45.426Z,95077.72
2023-03-26T20:19:14.504Z,95079.78
2023-03-26T20:21:43.211Z,95078.66
2023-03-26T20:24:14.777Z,95072.06
2023-03-26T20:26:43.078Z,95091.09
2023-03-26T20:29:11.728Z,95076.41
2023-03-26T20:31:41.615Z,95088.63
2023-03-26T20:34:16.987Z,95085.44
2023-03-26T20:36:45.595Z,95085.53
2023-03-26T20:39:13.969Z,95086.41
2023-03-26T20:41:47.267Z,95088.03
2023-03-26T20:44:17.676Z,95081.75
2023-03-26T20:46:46.713Z,95080.19
2023-03-26T20:49:17.918Z,95082.31
2023-03-26T20:51:46.907Z,95084.44
2023-03-26T20:54:18.153Z,95084.44
2023-03-26T20:56:48.023Z,95086.75
2023-03-26T20:59:22.597Z,95091.44
2023-03-26T21:01:52.288Z,95089.03
2023-03-26T21:04:22.349Z,95093.97
2023-03-26T21:06:50.865Z,95082.31
2023-03-26T21:09:24.035Z,95087.69
2023-03-26T21:12:01.880Z,95095.38
2023-03-26T21:14:34.539Z,95097.50
2023-03-26T21:17:03.004Z,95107.00
2023-03-26T21:19:33.323Z,95108.97
2023-03-26T21:22:10.060Z,95105.91
2023-03-26T21:24:58.276Z,95116.84
2023-03-26T21:27:33.908Z,95113.13
2023-03-26T21:30:02.354Z,95120.84
2023-03-26T21:32:31.674Z,95122.97
2023-03-26T21:35:03.437Z,95123.06
2023-03-26T21:37:32.221Z,95123.63
2023-03-26T21:40:10.771Z,95121.03
2023-03-26T21:42:39.348Z,95130.34
2023-03-26T21:45:08.705Z,95126.63
2023-03-26T21:47:37.358Z,95127.63
2023-03-26T21:50:09.152Z,95127.00
2023-03-26T21:52:48.495Z,95128.50
2023-03-26T21:55:18.618Z,95131.06
2023-03-26T21:58:09.971Z,95137.06
2023-03-26T22:00:46.707Z,95140.78
2023-03-26T22:03:23.691Z,95145.84
2023-03-26T22:06:00.732Z,95138.13
2023-03-26T22:08:31.783Z,95139.19
2023-03-26T22:10:59.767Z,95148.09
2023-03-26T22:13:27.742Z,95144.91
2023-03-26T22:15:56.929Z,95142.81
2023-03-26T22:18:26.095Z,95152.69
2023-03-26T22:20:55.710Z,95156.31
2023-03-26T22:23:24.533Z,95159.13
2023-03-26T22:25:52.629Z,95164.88
2023-03-26T22:28:20.945Z,95166.97
2023-03-26T22:30:48.996Z,95167.31
2023-03-26T22:33:17.985Z,95175.72
2023-03-26T22:35:46.410Z,95181.22
2023-03-26T22:38:17.162Z,95189.06
2023-03-26T22:40:45.237Z,95190.06
2023-03-26T22:43:13.223Z,95191.34
2023-03-26T22:45:41.176Z,95210.13
2023-03-26T22:48:09.392Z,95217.47
2023-03-26T22:50:37.454Z,95220.56
2023-03-26T22:53:05.468Z,95221.56
2023-03-26T22:55:34.848Z,95215.78
2023-03-26T22:58:02.848Z,95221.84
2023-03-26T23:00:32.465Z,95211.13
2023-03-26T23:03:00.940Z,95214.75
2023-03-26T23:05:29.462Z,95208.50
2023-03-26T23:07:58.042Z,95202.78
2023-03-26T23:10:26.115Z,95215.56
2023-03-26T23:12:55.537Z,95216.84
2023-03-26T23:15:25.987Z,95215.28
2023-03-26T23:17:55.054Z,95219.69
2023-03-26T23:20:23.449Z,95214.47
2023-03-26T23:22:51.431Z,95210.63
2023-03-26T23:25:20.154Z,95217.28
2023-03-26T23:27:48.725Z,95215.28
2023-03-26T23:30:18.381Z,95220.31
2023-03-26T23:32:47.156Z,95226.72
2023-03-26T23:35:15.659Z,95226.22
2023-03-26T23:37:43.637Z,95232.44
2023-03-26T23:40:13.867Z,95245.44
2023-03-26T23:42:42.450Z,95252.16
2023-03-26T23:45:12.365Z,95254.75
2023-03-26T23:47:42.651Z,95264.91
2023-03-26T23:50:11.632Z,95271.94
2023-03-26T23:52:39.942Z,95275.25
2023-03-26T23:55:08.510Z,95286.50
2023-03-26T23:57:37.165Z,95290.16
